VOZ656 YSSY-YSCB
Flight info
| Callsign | VOZ656 |
|---|---|
| Flight time | 0h 35m |
| Altitude | 16000 |
| Route | SY3/34L TESAT H65 CB |
| Aircraft | SF34/M-SDFGR/S |
Departure
| Time | 2026-05-04 06:27 |
|---|---|
| Airport | Sydney Kingsford Smith International Airport (YSSY) |
Arrival
| Time | 2026-05-04 07:02 |
|---|---|
| Airport | Canberra Airport (YSCB) |
| Time | Latitude | Longitude | Altitude | Speed | Heading |
|---|---|---|---|---|---|
| 2026-05-04 05:38 | -33.93633 | 151.18112 | 26 ft | 0 kts | 71° |
| 2026-05-04 06:11 | -33.93729 | 151.18064 | 26 ft | 14 kts | 171° |
| 2026-05-04 06:11 | -33.93787 | 151.18002 | 26 ft | 13 kts | 254° |
| 2026-05-04 06:13 | -33.94533 | 151.17885 | 25 ft | 16 kts | 169° |
| 2026-05-04 06:14 | -33.95143 | 151.17863 | 25 ft | 0 kts | 257° |
| 2026-05-04 06:21 | -33.95147 | 151.17843 | 25 ft | 9 kts | 257° |
| 2026-05-04 06:22 | -33.95159 | 151.17743 | 24 ft | 8 kts | 296° |
| 2026-05-04 06:22 | -33.95147 | 151.17732 | 27 ft | 0 kts | 349° |
| 2026-05-04 06:26 | -33.95135 | 151.17729 | 24 ft | 11 kts | 349° |
| 2026-05-04 06:26 | -33.94834 | 151.17652 | 25 ft | 78 kts | 347° |
| 2026-05-04 06:26 | -33.94111 | 151.17459 | 88 ft | 130 kts | 348° |
| 2026-05-04 06:26 | -33.93141 | 151.17139 | 502 ft | 154 kts | 345° |
| 2026-05-04 06:27 | -33.90180 | 151.12789 | 2712 ft | 198 kts | 303° |
| 2026-05-04 06:28 | -33.89500 | 151.11315 | 3092 ft | 209 kts | 302° |
| 2026-05-04 06:28 | -33.88748 | 151.09709 | 3099 ft | 228 kts | 302° |
| 2026-05-04 06:28 | -33.88310 | 151.07829 | 3095 ft | 246 kts | 275° |
| 2026-05-04 06:28 | -33.88761 | 151.05810 | 3092 ft | 250 kts | 246° |
| 2026-05-04 06:29 | -33.89944 | 151.04452 | 3077 ft | 235 kts | 212° |
| 2026-05-04 06:29 | -33.91497 | 151.03929 | 3100 ft | 229 kts | 193° |
| 2026-05-04 06:29 | -33.92998 | 151.03649 | 3592 ft | 207 kts | 193° |
| 2026-05-04 06:29 | -33.94340 | 151.03433 | 4300 ft | 186 kts | 193° |
| 2026-05-04 06:30 | -33.95637 | 151.03251 | 4906 ft | 188 kts | 193° |
| 2026-05-04 06:30 | -33.96933 | 151.03085 | 5687 ft | 188 kts | 192° |
| 2026-05-04 06:30 | -33.98237 | 151.02928 | 6355 ft | 191 kts | 193° |
| 2026-05-04 06:30 | -33.99575 | 151.02781 | 6943 ft | 195 kts | 192° |
| 2026-05-04 06:31 | -34.00925 | 151.02626 | 7577 ft | 195 kts | 193° |
| 2026-05-04 06:31 | -34.02287 | 151.02458 | 8205 ft | 199 kts | 193° |
| 2026-05-04 06:31 | -34.03677 | 151.02287 | 8826 ft | 202 kts | 192° |
| 2026-05-04 06:31 | -34.05085 | 151.02106 | 9486 ft | 204 kts | 192° |
| 2026-05-04 06:32 | -34.06506 | 151.01916 | 10105 ft | 207 kts | 193° |
| 2026-05-04 06:33 | -34.16383 | 150.99193 | 14313 ft | 213 kts | 212° |
| 2026-05-04 06:34 | -34.17304 | 150.98752 | 14685 ft | 216 kts | 209° |
| 2026-05-04 06:34 | -34.18697 | 150.98080 | 15241 ft | 216 kts | 212° |
| 2026-05-04 06:34 | -34.20537 | 150.97113 | 15918 ft | 224 kts | 211° |
| 2026-05-04 06:34 | -34.21539 | 150.96604 | 15997 ft | 240 kts | 211° |
| 2026-05-04 06:35 | -34.23129 | 150.95799 | 16016 ft | 254 kts | 210° |
| 2026-05-04 06:36 | -34.35597 | 150.89448 | 16004 ft | 298 kts | 209° |
| 2026-05-04 06:37 | -34.37513 | 150.88466 | 16007 ft | 299 kts | 209° |
| 2026-05-04 06:37 | -34.39410 | 150.87493 | 16009 ft | 301 kts | 209° |
| 2026-05-04 06:37 | -34.41371 | 150.86496 | 16003 ft | 302 kts | 209° |
| 2026-05-04 06:37 | -34.43283 | 150.85514 | 16006 ft | 303 kts | 209° |
| 2026-05-04 06:38 | -34.45230 | 150.84519 | 16004 ft | 304 kts | 209° |
| 2026-05-04 06:38 | -34.47171 | 150.83528 | 16003 ft | 304 kts | 209° |
| 2026-05-04 06:40 | -34.58798 | 150.73970 | 15997 ft | 297 kts | 239° |
| 2026-05-04 06:40 | -34.60085 | 150.71988 | 15999 ft | 300 kts | 238° |
| 2026-05-04 06:40 | -34.61327 | 150.69993 | 16001 ft | 300 kts | 242° |
| 2026-05-04 06:40 | -34.62524 | 150.67913 | 16000 ft | 301 kts | 241° |
| 2026-05-04 06:41 | -34.63779 | 150.65868 | 15988 ft | 302 kts | 239° |
| 2026-05-04 06:41 | -34.65026 | 150.63818 | 15991 ft | 301 kts | 241° |
| 2026-05-04 06:41 | -34.66246 | 150.61749 | 15997 ft | 302 kts | 241° |
| 2026-05-04 06:41 | -34.67494 | 150.59698 | 15995 ft | 303 kts | 240° |
| 2026-05-04 06:42 | -34.68738 | 150.57637 | 15995 ft | 302 kts | 241° |
| 2026-05-04 06:42 | -34.69967 | 150.55569 | 15990 ft | 302 kts | 241° |
| 2026-05-04 06:42 | -34.71205 | 150.53506 | 15991 ft | 302 kts | 240° |
| 2026-05-04 06:44 | -34.79834 | 150.39105 | 16005 ft | 300 kts | 241° |
| 2026-05-04 06:44 | -34.81062 | 150.37056 | 16002 ft | 300 kts | 241° |
| 2026-05-04 06:44 | -34.82289 | 150.34991 | 15986 ft | 301 kts | 241° |
| 2026-05-04 06:45 | -34.83525 | 150.32925 | 15992 ft | 302 kts | 240° |
| 2026-05-04 06:45 | -34.84761 | 150.30856 | 15996 ft | 302 kts | 240° |
| 2026-05-04 06:45 | -34.85995 | 150.28781 | 15996 ft | 302 kts | 241° |
| 2026-05-04 06:45 | -34.87229 | 150.26712 | 15996 ft | 303 kts | 241° |
| 2026-05-04 06:46 | -34.88467 | 150.24636 | 15995 ft | 302 kts | 241° |
| 2026-05-04 06:46 | -34.89696 | 150.22567 | 15996 ft | 302 kts | 241° |
| 2026-05-04 06:46 | -34.90928 | 150.20495 | 15994 ft | 302 kts | 241° |
| 2026-05-04 06:46 | -34.92158 | 150.18425 | 15994 ft | 302 kts | 241° |
| 2026-05-04 06:48 | -35.00774 | 150.03913 | 15207 ft | 272 kts | 243° |
| 2026-05-04 06:48 | -35.01857 | 150.02054 | 14833 ft | 267 kts | 242° |
| 2026-05-04 06:49 | -35.02944 | 150.00229 | 14465 ft | 265 kts | 242° |
| 2026-05-04 06:50 | -35.12000 | 149.86515 | 11892 ft | 301 kts | 236° |
| 2026-05-04 06:51 | -35.13340 | 149.84629 | 11545 ft | 286 kts | 239° |
| 2026-05-04 06:51 | -35.14586 | 149.82778 | 11183 ft | 279 kts | 239° |
| 2026-05-04 06:51 | -35.15833 | 149.80978 | 10822 ft | 276 kts | 238° |
| 2026-05-04 06:51 | -35.17047 | 149.79243 | 10453 ft | 263 kts | 239° |
| 2026-05-04 06:52 | -35.18202 | 149.77548 | 10094 ft | 256 kts | 240° |
| 2026-05-04 06:52 | -35.19340 | 149.75896 | 9712 ft | 253 kts | 239° |
| 2026-05-04 06:52 | -35.20472 | 149.74262 | 9317 ft | 250 kts | 239° |
| 2026-05-04 06:52 | -35.21585 | 149.72637 | 8925 ft | 249 kts | 239° |
| 2026-05-04 06:53 | -35.22697 | 149.71028 | 8530 ft | 246 kts | 239° |
| 2026-05-04 06:53 | -35.23795 | 149.69429 | 8161 ft | 244 kts | 239° |
| 2026-05-04 06:53 | -35.24881 | 149.67850 | 7783 ft | 242 kts | 239° |
| 2026-05-04 06:53 | -35.25953 | 149.66296 | 7541 ft | 236 kts | 239° |
| 2026-05-04 06:54 | -35.26991 | 149.64783 | 7480 ft | 229 kts | 240° |
| 2026-05-04 06:54 | -35.28002 | 149.63309 | 7481 ft | 224 kts | 240° |
| 2026-05-04 06:54 | -35.29003 | 149.61846 | 7477 ft | 226 kts | 240° |
| 2026-05-04 06:54 | -35.30021 | 149.60371 | 7477 ft | 228 kts | 240° |
| 2026-05-04 06:55 | -35.31041 | 149.58881 | 7489 ft | 228 kts | 240° |
| 2026-05-04 06:55 | -35.32059 | 149.57393 | 7485 ft | 228 kts | 240° |
| 2026-05-04 06:55 | -35.33084 | 149.55904 | 7488 ft | 229 kts | 240° |
| 2026-05-04 06:55 | -35.34108 | 149.54408 | 7490 ft | 230 kts | 240° |
| 2026-05-04 06:56 | -35.35131 | 149.52905 | 7491 ft | 230 kts | 240° |
| 2026-05-04 06:57 | -35.41227 | 149.41464 | 6527 ft | 241 kts | 248° |
| 2026-05-04 06:58 | -35.42065 | 149.39702 | 6463 ft | 237 kts | 248° |
| 2026-05-04 06:58 | -35.42865 | 149.37970 | 6436 ft | 226 kts | 256° |
| 2026-05-04 06:58 | -35.43010 | 149.36175 | 6415 ft | 206 kts | 288° |
| 2026-05-04 06:58 | -35.42286 | 149.34736 | 6413 ft | 201 kts | 319° |
| 2026-05-04 06:59 | -35.41059 | 149.33826 | 5976 ft | 215 kts | 325° |
| 2026-05-04 06:59 | -35.39888 | 149.32763 | 5537 ft | 196 kts | 312° |
| 2026-05-04 06:59 | -35.39121 | 149.31621 | 5382 ft | 154 kts | 306° |
| 2026-05-04 06:59 | -35.38417 | 149.30497 | 5083 ft | 177 kts | 306° |
| 2026-05-04 07:01 | -35.32556 | 149.22136 | 2754 ft | 155 kts | 310° |
| 2026-05-04 07:01 | -35.31909 | 149.21192 | 2356 ft | 134 kts | 312° |
| 2026-05-04 07:02 | -35.31352 | 149.20374 | 2070 ft | 120 kts | 315° |
| 2026-05-04 07:02 | -35.30817 | 149.19608 | 1882 ft | 114 kts | 316° |
| 2026-05-04 07:02 | -35.30385 | 149.18980 | 1873 ft | 70 kts | 310° |
| 2026-05-04 07:02 | -35.30202 | 149.18708 | 1875 ft | 27 kts | 308° |
| 2026-05-04 07:03 | -35.30134 | 149.18591 | 1875 ft | 5 kts | 311° |
| 2026-05-04 07:03 | -35.30107 | 149.18552 | 1875 ft | 1 kts | 324° |
| 2026-05-04 07:03 | -35.30111 | 149.18585 | 1875 ft | 13 kts | 133° |
| 2026-05-04 07:03 | -35.30199 | 149.18705 | 1875 ft | 27 kts | 129° |
| 2026-05-04 07:04 | -35.30314 | 149.18874 | 1874 ft | 24 kts | 130° |
| 2026-05-04 07:04 | -35.30418 | 149.18992 | 1872 ft | 15 kts | 159° |
| 2026-05-04 07:04 | -35.30493 | 149.19003 | 1872 ft | 6 kts | 176° |
| 2026-05-04 07:04 | -35.30512 | 149.18983 | 1875 ft | 7 kts | 268° |
| 2026-05-04 07:05 | -35.30476 | 149.18928 | 1875 ft | 11 kts | 313° |
| 2026-05-04 07:05 | -35.30477 | 149.18885 | 1875 ft | 1 kts | 214° |
| 2026-05-04 07:05 | -35.30507 | 149.18857 | 1874 ft | 2 kts | 220° |
| 2026-05-04 07:05 | -35.30511 | 149.18853 | 1875 ft | 2 kts | 218° |
| 2026-05-04 07:06 | -35.30512 | 149.18852 | 1875 ft | 0 kts | 216° |